Armstrong, MO (65230)

5:45 AM CST on November 26, 2014 (GMT -0600)
East 24 | Change Station
CLOSE
Current Station
Personal Weather Station
Location: Moberly, MO
Elevation: 856 ft
Nearby Weather Stations

Elev 856 ft 39.45 °N, 92.40 °W | Updated 8 seconds ago

Overcast
Overcast
31.8 °F
Feels Like 29 °F
N
3.1
Wind Variable Wind from SE
Gusts 4.7 mph

Today
High -- | Low -- °F
--% Chance of Precip.
Yesterday
High -- | Low -- °F
Precip. -- in
7:06 AM 4:49 PM
Waxing Crescent, 19% visible
Pressure 29.98 in
Visibility 10.0 miles
Clouds Mostly Cloudy 6000 ft
Overcast 7000 ft
Windchill 29 °F
Dew Point 19 °F
Humidity 58%
Rainfall 0.00 in
Snow Depth Not available.
UV 0 out of 12
Pollen .30 out of 12
Air Quality Not available.
Flu Activity Not available.
METAR KVER 261135Z AUTO 21004KT 10SM BKN060 OVC070 00/M06 A2998 RMK AO2 T00031057

More Conditions Fewer Conditions

Pressure 29.98 in
Visibility 10.0 miles
Clouds Mostly Cloudy 6000 ft
Overcast 7000 ft
Windchill 29 °F
Dew Point 19 °F
Humidity 58%
Rainfall 0.00 in
Snow Depth Not available.
UV 0 out of 12
Pollen .30 out of 12
Air Quality Not available.
Flu Activity Not available.
METAR KVER 261135Z AUTO 21004KT 10SM BKN060 OVC070 00/M06 A2998 RMK AO2 T00031057

More Conditions Fewer Conditions

10-Day Weather Forecast

Almanac

Astronomy

Nov. 26, 2014 Rise Set
Actual Time
Civil Twilight
Nautical Twilight
Astronomical Twilight
Moon
Length of Visible Light
Length of Day
Tomorrow will be .
, % of the Moon is Illuminated

Today's Extremes

State Highs State Lows

Community

WunderPhotos

Upload Photos

1,773,708 photos uploaded!

WunderBlogs® & News

Nearby

Air Quality

  Air Quality AQ Index Pollutant
Not available.

Snow Depth

Station Depth Elevation

Earthquake Activity

City Distance Mag. Time & Date
Minimum magnitude displayed is 2.5.

Coastal Water Temperatures

Place Temperature

Nearby Weather Stations